M I D A S
Marine Information and Data Acquisition System
Tripno 1057 of the Zeeleeuw from 2006-03-28 06:42:22 to 2006-03-28 11:14:48
Back to CruiseResearch ActivitiesStationsMapUnderway DataData graphs

EquipmentUnitsComments
TimeDGPSUTC
LatitudeDGPSDM.mWGS84
LongitudeDGPSDM.mWGS84
SpeedMeteo Stationm/sRelative wind speed
DirectionMeteo StationdegRelative wind direction
TemperatureMeteo Stationdeg CelciusAir temperature
PressureMeteo StationPaAtmospheric pressure
HumidityMeteo Station%Relative humidity
Missing or incorrect values are displayed as -999
Metereological data collected by the RV Zeeleeuw from 2006-03-28 06:41:08 to 2006-03-28 11:26:33
                                                                                    Next 1000 lines
Time Latitude Longitude Speed Direction Temperature Pressure Humidity
2006-03-28 06:41:18 51°13.6 2°56.088 -999 134 9 100190 81
2006-03-28 06:41:23 51°13.601 2°56.085 -999 127 9 100190 81
2006-03-28 06:41:28 51°13.602 2°56.082 -999 159 9 100190 81
2006-03-28 06:41:33 51°13.603 2°56.078 -999 151 9 100190 81
2006-03-28 06:41:39 51°13.604 2°56.072 -999 161 9 100190 81
2006-03-28 06:41:43 51°13.605 2°56.068 -999 155 9 100190 81
2006-03-28 06:41:48 51°13.606 2°56.063 -999 145 9 100190 81
2006-03-28 06:41:53 51°13.607 2°56.058 -999 133 9 100190 81
2006-03-28 06:41:58 51°13.608 2°56.052 -999 142 8.9 100190 81
2006-03-28 06:42:03 51°13.609 2°56.047 -999 124 8.9 100190 81
2006-03-28 06:42:08 51°13.611 2°56.041 -999 161 9 100190 81
2006-03-28 06:42:13 51°13.612 2°56.035 -999 143 9 100190 81
2006-03-28 06:42:18 51°13.613 2°56.029 -999 150 9 100190 81
2006-03-28 06:42:23 51°13.614 2°56.023 -999 142 9 100190 81
2006-03-28 06:42:28 51°13.616 2°56.017 -999 155 9 100180 81
2006-03-28 06:42:33 51°13.617 2°56.01 -999 150 9 100180 81
2006-03-28 06:42:38 51°13.619 2°56.004 -999 112 9 100190 81
2006-03-28 06:42:43 51°13.62 2°55.998 -999 105 9 100190 81
2006-03-28 06:42:48 51°13.622 2°55.992 -999 138 9 100190 81
2006-03-28 06:42:53 51°13.624 2°55.986 -999 134 9 100190 81
2006-03-28 06:42:58 51°13.626 2°55.979 -999 125 8.9 100180 81
2006-03-28 06:43:03 51°13.628 2°55.973 -999 113 8.9 100180 81
2006-03-28 06:43:08 51°13.63 2°55.966 -999 41 9 100190 81
2006-03-28 06:43:13 51°13.632 2°55.959 -999 146 9 100190 81
2006-03-28 06:43:18 51°13.635 2°55.952 -999 133 9 100190 81
2006-03-28 06:43:23 51°13.637 2°55.945 -999 226 9 100190 81
2006-03-28 06:43:28 51°13.639 2°55.938 -999 134 9 100190 81
2006-03-28 06:43:33 51°13.641 2°55.93 -999 125 9 100190 81
2006-03-28 06:43:38 51°13.644 2°55.923 -999 177 9 100190 81
2006-03-28 06:43:43 51°13.646 2°55.916 -999 156 9 100190 81
2006-03-28 06:43:48 51°13.649 2°55.909 -999 143 9 100190 81
2006-03-28 06:43:53 51°13.652 2°55.902 -999 144 9 100190 81
2006-03-28 06:43:58 51°13.655 2°55.895 -999 144 9 100190 81
2006-03-28 06:44:03 51°13.657 2°55.887 -999 127 9 100190 81
2006-03-28 06:44:08 51°13.66 2°55.88 -999 136 9 100190 81
2006-03-28 06:44:13 51°13.663 2°55.873 -999 40 9 100190 81
2006-03-28 06:44:18 51°13.666 2°55.866 -999 144 9 100190 81
2006-03-28 06:44:23 51°13.669 2°55.859 -999 41 9 100190 81
2006-03-28 06:44:28 51°13.672 2°55.853 -999 141 9 100190 81
2006-03-28 06:44:33 51°13.675 2°55.846 -999 124 9 100190 81
2006-03-28 06:44:38 51°13.678 2°55.839 -999 129 9 100200 81
2006-03-28 06:44:43 51°13.682 2°55.832 -999 119 9 100200 81
2006-03-28 06:44:48 51°13.685 2°55.824 -999 127 9 100190 81
2006-03-28 06:44:53 51°13.688 2°55.817 -999 135 9 100190 81
2006-03-28 06:44:58 51°13.691 2°55.81 -999 136 9 100180 81
2006-03-28 06:45:03 51°13.693 2°55.803 -999 161 9 100180 81
2006-03-28 06:45:09 51°13.696 2°55.796 -999 120 9 100190 81
2006-03-28 06:45:14 51°13.698 2°55.79 -999 125 9 100190 81
2006-03-28 06:45:19 51°13.7 2°55.783 -999 125 9 100190 81
2006-03-28 06:45:24 51°13.702 2°55.777 -999 133 9 100190 81
2006-03-28 06:45:28 51°13.703 2°55.772 -999 131 9 100190 81
2006-03-28 06:45:34 51°13.705 2°55.765 -999 122 9 100190 81
2006-03-28 06:45:39 51°13.706 2°55.76 -999 131 9 100190 81
2006-03-28 06:45:44 51°13.707 2°55.755 -999 152 9 100190 81
2006-03-28 06:45:49 51°13.707 2°55.751 -999 138 9 100190 81
2006-03-28 06:45:54 51°13.708 2°55.748 -999 231 9 100190 81
2006-03-28 06:45:59 51°13.708 2°55.745 -999 158 9 100190 81
2006-03-28 06:46:04 51°13.708 2°55.742 -999 80 9 100190 81
2006-03-28 06:46:08 51°13.709 2°55.741 -999 115 9 100190 81
2006-03-28 06:46:14 51°13.709 2°55.739 -999 221 9 100190 81
2006-03-28 06:46:19 51°13.709 2°55.739 -999 180 9 100190 81
2006-03-28 06:46:24 51°13.709 2°55.739 -999 231 9 100190 81
2006-03-28 06:46:29 51°13.709 2°55.739 -999 234 9 100190 81
2006-03-28 06:46:34 51°13.71 2°55.74 -999 284 9 100190 81
2006-03-28 06:46:39 51°13.71 2°55.741 -999 111 9 100190 81
2006-03-28 06:46:44 51°13.711 2°55.742 -999 120 9 100190 81
2006-03-28 06:46:49 51°13.712 2°55.743 -999 161 9 100190 81
2006-03-28 06:46:54 51°13.713 2°55.744 -999 214 9 100190 81
2006-03-28 06:46:59 51°13.714 2°55.745 -999 192 9.1 100180 81
2006-03-28 06:47:04 51°13.715 2°55.746 -999 196 9.1 100180 81
2006-03-28 06:47:09 51°13.715 2°55.746 -999 182 9.1 100180 81
2006-03-28 06:47:14 51°13.715 2°55.746 -999 171 9.1 100180 81
2006-03-28 06:47:19 51°13.715 2°55.746 -999 183 9.1 100190 81
2006-03-28 06:47:24 51°13.714 2°55.745 -999 217 9.1 100190 81
2006-03-28 06:47:29 51°13.713 2°55.744 -999 208 9.1 100200 81
2006-03-28 06:47:34 51°13.711 2°55.742 -999 214 9.1 100200 81
2006-03-28 06:47:39 51°13.709 2°55.741 -999 214 9.1 100190 81
2006-03-28 06:47:44 51°13.707 2°55.74 -999 259 9.1 100190 81
2006-03-28 06:47:48 51°13.705 2°55.739 -999 199 9.1 100190 81
2006-03-28 06:47:54 51°13.704 2°55.737 -999 214 9.1 100190 81
2006-03-28 06:47:59 51°13.702 2°55.737 -999 236 9.2 100190 81
2006-03-28 06:48:04 51°13.702 2°55.736 -999 239 9.2 100190 81
2006-03-28 06:48:09 51°13.702 2°55.736 -999 242 9.2 100190 81
2006-03-28 06:48:14 51°13.702 2°55.735 -999 236 9.2 100190 81
2006-03-28 06:48:19 51°13.703 2°55.735 -999 233 9.2 100190 81
2006-03-28 06:48:24 51°13.704 2°55.735 -999 249 9.2 100190 81
2006-03-28 06:48:28 51°13.705 2°55.734 -999 248 9.2 100200 81
2006-03-28 06:48:34 51°13.707 2°55.734 -999 256 9.2 100200 81
2006-03-28 06:48:39 51°13.71 2°55.732 -999 229 9.2 100200 81
2006-03-28 06:48:44 51°13.713 2°55.73 -999 263 9.2 100200 81
2006-03-28 06:48:48 51°13.716 2°55.728 -999 280 9.2 100200 81
2006-03-28 06:48:54 51°13.721 2°55.724 -999 314 9.2 100200 81
2006-03-28 06:48:59 51°13.725 2°55.72 -999 314 9.2 100190 81
2006-03-28 06:49:04 51°13.731 2°55.714 -999 290 9.2 100190 81
2006-03-28 06:49:09 51°13.737 2°55.709 -999 271 9.2 100190 81
2006-03-28 06:49:13 51°13.743 2°55.704 -999 274 9.2 100190 81
2006-03-28 06:49:18 51°13.75 2°55.698 -999 305 9.2 100190 81
2006-03-28 06:49:23 51°13.758 2°55.691 -999 310 9.2 100190 81
2006-03-28 06:49:29 51°13.768 2°55.683 -999 325 9.2 100200 80
2006-03-28 06:49:34 51°13.777 2°55.675 -999 328 9.2 100200 80
2006-03-28 06:49:39 51°13.786 2°55.667 -999 336 9.2 100200 80
2006-03-28 06:49:44 51°13.795 2°55.658 -999 331 9.2 100200 80
2006-03-28 06:49:48 51°13.803 2°55.651 -999 344 9.2 100190 80
2006-03-28 06:49:54 51°13.815 2°55.641 -999 331 9.2 100190 80
2006-03-28 06:49:59 51°13.825 2°55.633 -999 15 9.2 100190 80
2006-03-28 06:50:04 51°13.835 2°55.625 -999 346 9.2 100190 80
2006-03-28 06:50:09 51°13.846 2°55.617 -999 344 9.2 100190 80
2006-03-28 06:50:14 51°13.857 2°55.609 -999 315 9.2 100190 80
2006-03-28 06:50:19 51°13.868 2°55.602 -999 299 9.2 100190 80
2006-03-28 06:50:24 51°13.879 2°55.594 -999 328 9.2 100190 80
2006-03-28 06:50:28 51°13.887 2°55.588 -999 36 9.2 100190 80
2006-03-28 06:50:34 51°13.9 2°55.579 -999 30 9.2 100190 80
2006-03-28 06:50:39 51°13.91 2°55.572 -999 271 9.2 100190 80
2006-03-28 06:50:44 51°13.92 2°55.565 -999 299 9.2 100190 80
2006-03-28 06:50:49 51°13.93 2°55.558 -999 319 9.2 100190 80
2006-03-28 06:50:54 51°13.94 2°55.551 -999 312 9.2 100190 80
2006-03-28 06:50:58 51°13.948 2°55.546 -999 295 9.2 100190 80
2006-03-28 06:51:04 51°13.959 2°55.538 -999 298 9.2 100190 80
2006-03-28 06:51:09 51°13.969 2°55.531 -999 336 9.2 100190 80
2006-03-28 06:51:14 51°13.978 2°55.525 -999 283 9.2 100190 80
2006-03-28 06:51:19 51°13.988 2°55.519 -999 303 9.2 100180 80
2006-03-28 06:51:24 51°13.997 2°55.512 -999 249 9.2 100180 80
2006-03-28 06:51:29 51°14.006 2°55.506 -999 230 9.2 100210 80
2006-03-28 06:51:34 51°14.014 2°55.5 -999 287 9.2 100210 80
2006-03-28 06:51:39 51°14.023 2°55.494 -999 279 9.2 100200 80
2006-03-28 06:51:44 51°14.031 2°55.488 -999 318 9.2 100200 80
2006-03-28 06:51:49 51°14.04 2°55.482 -999 302 9.2 100190 80
2006-03-28 06:51:54 51°14.048 2°55.476 -999 321 9.2 100190 80
2006-03-28 06:51:59 51°14.056 2°55.471 -999 327 9.2 100200 80
2006-03-28 06:52:04 51°14.064 2°55.465 -999 294 9.2 100200 80
2006-03-28 06:52:09 51°14.072 2°55.46 -999 289 9.2 100190 80
2006-03-28 06:52:14 51°14.079 2°55.454 -999 277 9.2 100190 80
2006-03-28 06:52:19 51°14.087 2°55.448 -999 261 9.2 100210 80
2006-03-28 06:52:24 51°14.095 2°55.443 -999 263 9.2 100210 80
2006-03-28 06:52:28 51°14.101 2°55.438 -999 274 9.2 100180 80
2006-03-28 06:52:34 51°14.11 2°55.431 -999 266 9.2 100180 80
2006-03-28 06:52:39 51°14.117 2°55.425 -999 273 9.2 100190 80
2006-03-28 06:52:44 51°14.125 2°55.419 -999 230 9.2 100190 80
2006-03-28 06:52:49 51°14.132 2°55.414 -999 340 9.2 100190 80
2006-03-28 06:52:54 51°14.139 2°55.407 -999 315 9.2 100190 80
2006-03-28 06:52:58 51°14.145 2°55.403 -999 231 9.2 100190 80
2006-03-28 06:53:04 51°14.153 2°55.395 -999 331 9.2 100190 80
2006-03-28 06:53:09 51°14.16 2°55.389 -999 320 9.2 100200 80
2006-03-28 06:53:14 51°14.167 2°55.382 -999 318 9.2 100200 80
2006-03-28 06:53:19 51°14.174 2°55.375 -999 327 9.2 100180 80
2006-03-28 06:53:24 51°14.181 2°55.368 -999 330 9.2 100180 80
2006-03-28 06:53:29 51°14.187 2°55.361 -999 320 9.2 100190 80
2006-03-28 06:53:34 51°14.194 2°55.354 -999 316 9.2 100190 80
2006-03-28 06:53:39 51°14.2 2°55.346 -999 323 9.2 100190 80
2006-03-28 06:53:44 51°14.206 2°55.339 -999 301 9.2 100190 80
2006-03-28 06:53:49 51°14.212 2°55.331 -999 296 9.2 100180 80
2006-03-28 06:53:54 51°14.218 2°55.323 -999 295 9.2 100180 80
2006-03-28 06:53:59 51°14.224 2°55.315 -999 287 9.2 100190 80
2006-03-28 06:54:04 51°14.23 2°55.307 -999 40 9.2 100190 80
2006-03-28 06:54:09 51°14.236 2°55.298 -999 299 9.2 100180 80
2006-03-28 06:54:14 51°14.241 2°55.29 -999 293 9.2 100180 80
2006-03-28 06:54:19 51°14.247 2°55.281 -999 309 9.2 100190 80
2006-03-28 06:54:24 51°14.252 2°55.272 -999 312 9.2 100190 80
2006-03-28 06:54:28 51°14.256 2°55.265 -999 311 9.2 100190 80
2006-03-28 06:54:34 51°14.263 2°55.254 -999 303 9.2 100190 80
2006-03-28 06:54:39 51°14.268 2°55.245 -999 285 9.2 100190 80
2006-03-28 06:54:44 51°14.274 2°55.237 -999 285 9.2 100190 80
2006-03-28 06:54:48 51°14.278 2°55.229 -999 301 9.2 100210 80
2006-03-28 06:54:54 51°14.284 2°55.218 -999 294 9.2 100210 80
2006-03-28 06:54:59 51°14.289 2°55.21 -999 295 9.2 100190 80
2006-03-28 06:55:04 51°14.295 2°55.2 -999 315 9.2 100190 80
2006-03-28 06:55:09 51°14.3 2°55.192 -999 306 9.2 100200 80
2006-03-28 06:55:14 51°14.305 2°55.183 -999 300 9.2 100200 80
2006-03-28 06:55:19 51°14.311 2°55.173 -999 43 9.2 100200 79
2006-03-28 06:55:24 51°14.316 2°55.164 -999 308 9.2 100200 79
2006-03-28 06:55:29 51°14.321 2°55.155 -999 306 9.2 100190 79
2006-03-28 06:55:34 51°14.326 2°55.146 -999 242 9.2 100190 79
2006-03-28 06:55:39 51°14.331 2°55.137 -999 324 9.2 100200 79
2006-03-28 06:55:44 51°14.337 2°55.128 -999 292 9.2 100200 79
2006-03-28 06:55:49 51°14.342 2°55.119 -999 276 9.2 100220 79
2006-03-28 06:55:54 51°14.347 2°55.11 -999 233 9.2 100220 79
2006-03-28 06:55:58 51°14.351 2°55.102 -999 297 9.2 100190 79
2006-03-28 06:56:04 51°14.358 2°55.09 -999 304 9.2 100190 79
2006-03-28 06:56:08 51°14.362 2°55.081 -999 301 9.2 100190 79
2006-03-28 06:56:13 51°14.369 2°55.069 -999 301 9.2 100190 79
2006-03-28 06:56:18 51°14.375 2°55.056 -999 299 9.2 100180 79
2006-03-28 06:56:23 51°14.381 2°55.041 -999 308 9.2 100180 79
2006-03-28 06:56:28 51°14.386 2°55.025 -999 304 9.1 100200 79
2006-03-28 06:56:33 51°14.392 2°55.008 -999 313 9.1 100200 79
2006-03-28 06:56:38 51°14.396 2°54.99 -999 314 9.1 100190 79
2006-03-28 06:56:43 51°14.4 2°54.971 -999 319 9.1 100190 79
2006-03-28 06:56:48 51°14.404 2°54.951 -999 320 9.1 100180 79
2006-03-28 06:56:54 51°14.408 2°54.926 -999 326 9.1 100180 79
2006-03-28 06:56:58 51°14.41 2°54.909 -999 328 9.1 100160 79
2006-03-28 06:57:03 51°14.412 2°54.888 -999 328 9.1 100160 79
2006-03-28 06:57:08 51°14.413 2°54.865 -999 330 9.1 100160 79
2006-03-28 06:57:13 51°14.413 2°54.843 -999 328 9.1 100160 79
2006-03-28 06:57:18 51°14.414 2°54.82 -999 330 9.1 100130 79
2006-03-28 06:57:23 51°14.414 2°54.797 -999 331 9.1 100130 79
2006-03-28 06:57:28 51°14.414 2°54.773 -999 332 9.1 100120 79
2006-03-28 06:57:33 51°14.414 2°54.749 -999 332 9.1 100120 79
2006-03-28 06:57:38 51°14.414 2°54.724 -999 332 9 100120 79
2006-03-28 06:57:43 51°14.414 2°54.699 -999 326 9 100120 79
2006-03-28 06:57:48 51°14.413 2°54.674 -999 330 9 100130 79
2006-03-28 06:57:53 51°14.413 2°54.649 -999 331 9 100130 79
2006-03-28 06:57:58 51°14.412 2°54.623 -999 339 9 100120 80
2006-03-28 06:58:04 51°14.411 2°54.592 -999 333 9 100120 80
2006-03-28 06:58:08 51°14.411 2°54.571 -999 337 9 100130 80
2006-03-28 06:58:13 51°14.41 2°54.545 -999 334 9 100130 80
2006-03-28 06:58:18 51°14.409 2°54.519 -999 335 8.9 100120 80
2006-03-28 06:58:23 51°14.408 2°54.492 -999 339 8.9 100120 80
2006-03-28 06:58:28 51°14.406 2°54.465 -999 343 8.9 100120 80
2006-03-28 06:58:33 51°14.404 2°54.438 -999 345 8.9 100120 80
2006-03-28 06:58:38 51°14.4 2°54.412 -999 343 8.9 100110 80
2006-03-28 06:58:43 51°14.395 2°54.386 -999 352 8.9 100110 80
2006-03-28 06:58:48 51°14.389 2°54.361 -999 354 8.9 100110 80
2006-03-28 06:58:52 51°14.383 2°54.341 -999 352 8.9 100110 80
2006-03-28 06:58:58 51°14.373 2°54.311 -999 356 8.9 100110 80
2006-03-28 06:59:03 51°14.365 2°54.286 -999 358 8.9 100110 80
2006-03-28 06:59:08 51°14.356 2°54.261 -999 357 8.9 100100 80
2006-03-28 06:59:13 51°14.347 2°54.237 -999 358 8.9 100100 80
2006-03-28 06:59:18 51°14.338 2°54.212 -999 1 8.8 100120 80
2006-03-28 06:59:23 51°14.328 2°54.187 -999 356 8.8 100120 80
2006-03-28 06:59:28 51°14.318 2°54.162 -999 358 8.8 100120 80
2006-03-28 06:59:33 51°14.308 2°54.139 -999 -999 8.8 100120 80
2006-03-28 06:59:38 51°14.298 2°54.113 -999 359 8.8 100120 80
2006-03-28 06:59:43 51°14.288 2°54.089 -999 358 8.8 100120 80
2006-03-28 06:59:48 51°14.278 2°54.063 -999 352 8.8 100130 81
2006-03-28 06:59:53 51°14.269 2°54.039 -999 352 8.8 100130 81
2006-03-28 06:59:58 51°14.259 2°54.013 -999 355 8.8 100140 81
2006-03-28 07:00:03 51°14.25 2°53.988 -999 355 8.8 100140 81
2006-03-28 07:00:08 51°14.241 2°53.961 -999 358 8.8 100130 81
2006-03-28 07:00:13 51°14.233 2°53.935 -999 353 8.8 100130 81
2006-03-28 07:00:18 51°14.224 2°53.909 -999 353 8.8 100120 81
2006-03-28 07:00:24 51°14.214 2°53.878 -999 352 8.8 100120 81
2006-03-28 07:00:28 51°14.207 2°53.856 -999 351 8.8 100130 81
2006-03-28 07:00:33 51°14.198 2°53.831 -999 352 8.8 100130 81
2006-03-28 07:00:38 51°14.189 2°53.805 -999 356 8.8 100110 81
2006-03-28 07:00:43 51°14.18 2°53.778 -999 351 8.8 100110 81
2006-03-28 07:00:48 51°14.171 2°53.752 -999 351 8.8 100100 81
2006-03-28 07:00:53 51°14.161 2°53.726 -999 350 8.8 100100 81
2006-03-28 07:00:58 51°14.152 2°53.7 -999 357 8.8 100080 81
2006-03-28 07:01:03 51°14.143 2°53.674 -999 356 8.8 100080 81
2006-03-28 07:01:08 51°14.133 2°53.648 -999 1 8.8 100100 81
2006-03-28 07:01:14 51°14.122 2°53.617 -999 2 8.8 100100 81
2006-03-28 07:01:18 51°14.114 2°53.597 -999 357 8.8 100090 81
2006-03-28 07:01:23 51°14.104 2°53.571 -999 354 8.8 100090 81
2006-03-28 07:01:28 51°14.094 2°53.546 -999 356 8.8 100090 81
2006-03-28 07:01:33 51°14.084 2°53.52 -999 356 8.8 100090 81
2006-03-28 07:01:38 51°14.074 2°53.494 -999 352 8.8 100120 81
2006-03-28 07:01:43 51°14.065 2°53.468 -999 353 8.8 100120 81
2006-03-28 07:01:48 51°14.055 2°53.442 -999 351 8.8 100110 81
2006-03-28 07:01:53 51°14.046 2°53.416 -999 354 8.8 100110 81
2006-03-28 07:01:58 51°14.036 2°53.39 -999 355 8.7 100100 81
2006-03-28 07:02:03 51°14.027 2°53.363 -999 354 8.7 100100 81
2006-03-28 07:02:08 51°14.017 2°53.337 -999 354 8.7 100100 81
2006-03-28 07:02:13 51°14.008 2°53.31 -999 353 8.7 100100 81
2006-03-28 07:02:18 51°13.999 2°53.284 -999 356 8.7 100090 81
2006-03-28 07:02:23 51°13.989 2°53.257 -999 355 8.7 100090 81
2006-03-28 07:02:28 51°13.98 2°53.231 -999 354 8.7 100100 81
2006-03-28 07:02:33 51°13.971 2°53.205 -999 354 8.7 100100 81
2006-03-28 07:02:38 51°13.96 2°53.178 -999 357 8.7 100070 81
2006-03-28 07:02:43 51°13.95 2°53.152 -999 357 8.7 100070 81
2006-03-28 07:02:48 51°13.94 2°53.127 -999 1 8.7 100100 81
2006-03-28 07:02:53 51°13.929 2°53.101 -999 359 8.7 100100 81
2006-03-28 07:02:58 51°13.919 2°53.075 -999 357 8.7 100130 82
2006-03-28 07:03:03 51°13.909 2°53.048 -999 351 8.7 100130 82
2006-03-28 07:03:08 51°13.899 2°53.022 -999 356 8.7 100100 81
2006-03-28 07:03:13 51°13.889 2°52.995 -999 357 8.7 100100 81
2006-03-28 07:03:18 51°13.88 2°52.969 -999 353 8.7 100130 82
2006-03-28 07:03:23 51°13.87 2°52.943 -999 359 8.7 100130 82
2006-03-28 07:03:28 51°13.86 2°52.916 -999 358 8.7 100080 82
2006-03-28 07:03:33 51°13.85 2°52.89 -999 353 8.7 100080 82
2006-03-28 07:03:38 51°13.84 2°52.864 -999 358 8.7 100100 82
2006-03-28 07:03:43 51°13.83 2°52.837 -999 357 8.7 100100 82
2006-03-28 07:03:48 51°13.819 2°52.811 -999 358 8.7 100100 82
2006-03-28 07:03:53 51°13.809 2°52.785 -999 351 8.7 100100 82
2006-03-28 07:03:58 51°13.799 2°52.758 -999 356 8.7 100120 82
2006-03-28 07:04:03 51°13.79 2°52.732 -999 356 8.7 100120 82
2006-03-28 07:04:08 51°13.78 2°52.705 -999 357 8.7 100080 82
2006-03-28 07:04:13 51°13.77 2°52.679 -999 359 8.7 100080 82
2006-03-28 07:04:18 51°13.76 2°52.652 -999 356 8.7 100100 82
2006-03-28 07:04:23 51°13.751 2°52.625 -999 357 8.7 100100 82
2006-03-28 07:04:28 51°13.741 2°52.599 -999 352 8.7 100110 82
2006-03-28 07:04:33 51°13.73 2°52.572 -999 355 8.7 100110 82
2006-03-28 07:04:38 51°13.72 2°52.546 -999 356 8.7 100110 82
2006-03-28 07:04:43 51°13.71 2°52.52 -999 359 8.7 100110 82
2006-03-28 07:04:48 51°13.699 2°52.495 -999 356 8.7 100110 82
2006-03-28 07:04:52 51°13.69 2°52.474 -999 357 8.7 100110 82
2006-03-28 07:04:58 51°13.678 2°52.442 -999 359 8.7 100100 82
2006-03-28 07:05:03 51°13.668 2°52.417 -999 355 8.7 100100 82
2006-03-28 07:05:08 51°13.658 2°52.39 -999 355 8.7 100120 82
2006-03-28 07:05:13 51°13.648 2°52.364 -999 353 8.7 100120 82
2006-03-28 07:05:18 51°13.638 2°52.337 -999 359 8.7 100080 82
2006-03-28 07:05:23 51°13.629 2°52.31 -999 356 8.7 100080 82
2006-03-28 07:05:28 51°13.619 2°52.284 -999 356 8.7 100110 82
2006-03-28 07:05:33 51°13.609 2°52.257 -999 356 8.7 100110 82
2006-03-28 07:05:38 51°13.6 2°52.231 -999 356 8.7 100110 82
2006-03-28 07:05:43 51°13.59 2°52.204 -999 357 8.7 100110 82
2006-03-28 07:05:48 51°13.58 2°52.178 -999 357 8.7 100090 82
2006-03-28 07:05:53 51°13.57 2°52.151 -999 355 8.7 100090 82
2006-03-28 07:05:58 51°13.56 2°52.125 -999 352 8.7 100080 82
2006-03-28 07:06:03 51°13.55 2°52.098 -999 355 8.7 100080 82
2006-03-28 07:06:08 51°13.54 2°52.071 -999 354 8.7 100090 82
2006-03-28 07:06:13 51°13.531 2°52.045 -999 351 8.7 100090 82
2006-03-28 07:06:18 51°13.522 2°52.018 -999 350 8.7 100090 82
2006-03-28 07:06:23 51°13.512 2°51.991 -999 355 8.7 100090 82
2006-03-28 07:06:28 51°13.502 2°51.964 -999 357 8.7 100100 82
2006-03-28 07:06:33 51°13.492 2°51.937 -999 355 8.7 100100 82
2006-03-28 07:06:38 51°13.482 2°51.911 -999 357 8.7 100100 81
2006-03-28 07:06:43 51°13.473 2°51.883 -999 356 8.7 100100 81
2006-03-28 07:06:48 51°13.463 2°51.857 -999 359 8.7 100120 81
2006-03-28 07:06:53 51°13.453 2°51.83 -999 358 8.7 100120 81
2006-03-28 07:06:58 51°13.443 2°51.803 -999 356 8.7 100090 82
2006-03-28 07:07:03 51°13.433 2°51.777 -999 357 8.7 100090 82
2006-03-28 07:07:08 51°13.423 2°51.751 -999 358 8.7 100080 82
2006-03-28 07:07:13 51°13.413 2°51.724 -999 357 8.7 100080 82
2006-03-28 07:07:18 51°13.402 2°51.698 -999 359 8.7 100090 82
2006-03-28 07:07:23 51°13.392 2°51.671 -999 358 8.7 100090 82
2006-03-28 07:07:28 51°13.382 2°51.645 -999 359 8.7 100100 82
2006-03-28 07:07:33 51°13.372 2°51.619 -999 356 8.7 100100 82
2006-03-28 07:07:38 51°13.362 2°51.593 -999 355 8.7 100100 82
2006-03-28 07:07:43 51°13.352 2°51.565 -999 356 8.7 100100 82
2006-03-28 07:07:48 51°13.342 2°51.54 -999 359 8.7 100090 82
2006-03-28 07:07:53 51°13.332 2°51.513 -999 356 8.7 100090 82
2006-03-28 07:07:58 51°13.323 2°51.486 -999 356 8.7 100100 82
2006-03-28 07:08:03 51°13.313 2°51.459 -999 357 8.7 100100 82
2006-03-28 07:08:08 51°13.304 2°51.433 -999 357 8.7 100090 82
2006-03-28 07:08:13 51°13.294 2°51.406 -999 357 8.7 100090 82
2006-03-28 07:08:18 51°13.284 2°51.379 -999 359 8.7 100070 82
2006-03-28 07:08:23 51°13.275 2°51.353 -999 353 8.7 100070 82
2006-03-28 07:08:28 51°13.265 2°51.326 -999 354 8.7 100080 82
2006-03-28 07:08:33 51°13.256 2°51.299 -999 360 8.7 100080 82
2006-03-28 07:08:38 51°13.246 2°51.273 -999 357 8.7 100110 82
2006-03-28 07:08:44 51°13.234 2°51.241 -999 360 8.7 100110 82
2006-03-28 07:08:48 51°13.226 2°51.219 -999 356 8.7 100090 81
2006-03-28 07:08:53 51°13.217 2°51.193 -999 354 8.7 100090 81
2006-03-28 07:08:58 51°13.207 2°51.166 -999 357 8.7 100080 81
2006-03-28 07:09:04 51°13.195 2°51.134 -999 354 8.7 100080 81
2006-03-28 07:09:08 51°13.187 2°51.112 -999 353 8.7 100100 81
2006-03-28 07:09:14 51°13.176 2°51.081 -999 358 8.7 100100 81
2006-03-28 07:09:18 51°13.168 2°51.06 -999 358 8.7 100100 81
2006-03-28 07:09:24 51°13.157 2°51.027 -999 356 8.7 100100 81
2006-03-28 07:09:28 51°13.149 2°51.005 -999 357 8.7 100100 81
2006-03-28 07:09:34 51°13.137 2°50.973 -999 355 8.7 100100 81
2006-03-28 07:09:38 51°13.13 2°50.952 -999 356 8.7 100090 81
2006-03-28 07:09:44 51°13.118 2°50.919 -999 354 8.7 100090 81
2006-03-28 07:09:48 51°13.111 2°50.898 -999 355 8.7 100100 81
2006-03-28 07:09:54 51°13.099 2°50.865 -999 356 8.7 100100 81
2006-03-28 07:09:58 51°13.092 2°50.844 -999 358 8.7 100100 82
2006-03-28 07:10:04 51°13.08 2°50.811 -999 360 8.7 100100 82
2006-03-28 07:10:08 51°13.073 2°50.79 -999 358 8.7 100090 81
2006-03-28 07:10:14 51°13.061 2°50.757 -999 358 8.7 100090 81
2006-03-28 07:10:19 51°13.051 2°50.731 -999 1 8.7 100090 81
2006-03-28 07:10:24 51°13.041 2°50.704 -999 3 8.7 100090 81
2006-03-28 07:10:28 51°13.033 2°50.683 -999 358 8.7 100080 81
2006-03-28 07:10:34 51°13.022 2°50.651 -999 2 8.7 100080 81
2006-03-28 07:10:38 51°13.013 2°50.63 -999 2 8.7 100110 81
2006-03-28 07:10:44 51°13.002 2°50.598 -999 1 8.7 100110 81
2006-03-28 07:10:48 51°12.994 2°50.576 -999 359 8.7 100110 81
2006-03-28 07:10:54 51°12.982 2°50.544 -999 358 8.7 100110 81
2006-03-28 07:10:59 51°12.973 2°50.517 -999 357 8.7 100120 82
2006-03-28 07:11:04 51°12.963 2°50.49 -999 356 8.7 100120 82
2006-03-28 07:11:08 51°12.955 2°50.469 -999 351 8.7 100110 82
2006-03-28 07:11:14 51°12.944 2°50.436 -999 353 8.7 100110 82
2006-03-28 07:11:19 51°12.934 2°50.409 -999 356 8.7 100110 82
2006-03-28 07:11:24 51°12.924 2°50.383 -999 354 8.7 100110 82
2006-03-28 07:11:28 51°12.916 2°50.362 -999 1 8.7 100120 82
2006-03-28 07:11:33 51°12.906 2°50.334 -999 357 8.7 100120 82
2006-03-28 07:11:38 51°12.897 2°50.307 -999 357 8.7 100100 82
2006-03-28 07:11:44 51°12.885 2°50.275 -999 357 8.7 100100 82
2006-03-28 07:11:49 51°12.876 2°50.248 -999 355 8.7 100120 82
2006-03-28 07:11:54 51°12.866 2°50.221 -999 356 8.7 100120 82
2006-03-28 07:11:58 51°12.859 2°50.199 -999 359 8.7 100110 82
2006-03-28 07:12:04 51°12.847 2°50.167 -999 358 8.7 100110 82
2006-03-28 07:12:08 51°12.84 2°50.146 -999 1 8.7 100120 82
2006-03-28 07:12:14 51°12.828 2°50.114 -999 355 8.7 100120 82
2006-03-28 07:12:18 51°12.82 2°50.093 -999 359 8.7 100130 82
2006-03-28 07:12:23 51°12.81 2°50.066 -999 356 8.7 100130 82
2006-03-28 07:12:29 51°12.799 2°50.034 -999 356 8.7 100100 82
2006-03-28 07:12:34 51°12.789 2°50.007 -999 356 8.7 100100 82
2006-03-28 07:12:39 51°12.78 2°49.981 -999 -999 8.7 100100 82
2006-03-28 07:12:44 51°12.77 2°49.954 -999 359 8.7 100100 82
2006-03-28 07:12:48 51°12.762 2°49.933 -999 359 8.7 100090 82
2006-03-28 07:12:54 51°12.751 2°49.902 -999 2 8.7 100090 82
2006-03-28 07:12:58 51°12.743 2°49.881 -999 360 8.7 100090 82
2006-03-28 07:13:04 51°12.732 2°49.849 -999 359 8.7 100090 82
2006-03-28 07:13:08 51°12.724 2°49.828 -999 359 8.8 100100 81
2006-03-28 07:13:14 51°12.712 2°49.796 -999 1 8.8 100100 81
2006-03-28 07:13:19 51°12.703 2°49.77 -999 -999 8.8 100110 81
2006-03-28 07:13:24 51°12.693 2°49.743 -999 357 8.8 100110 81
2006-03-28 07:13:28 51°12.685 2°49.722 -999 354 8.8 100090 81
2006-03-28 07:13:34 51°12.674 2°49.69 -999 355 8.8 100090 81
2006-03-28 07:13:39 51°12.665 2°49.664 -999 351 8.8 100110 81
2006-03-28 07:13:44 51°12.655 2°49.637 -999 355 8.8 100110 81
2006-03-28 07:13:48 51°12.647 2°49.615 -999 360 8.8 100100 81
2006-03-28 07:13:54 51°12.636 2°49.583 -999 358 8.8 100100 81
2006-03-28 07:13:58 51°12.628 2°49.562 -999 359 8.8 100110 81
2006-03-28 07:14:04 51°12.617 2°49.53 -999 356 8.8 100110 81
2006-03-28 07:14:08 51°12.609 2°49.508 -999 355 8.8 100110 81
2006-03-28 07:14:14 51°12.598 2°49.476 -999 357 8.8 100110 81
2006-03-28 07:14:18 51°12.59 2°49.454 -999 357 8.8 100130 81
2006-03-28 07:14:24 51°12.579 2°49.422 -999 1 8.8 100130 81
2006-03-28 07:14:28 51°12.571 2°49.401 -999 358 8.7 100120 81
2006-03-28 07:14:34 51°12.56 2°49.368 -999 356 8.7 100120 81
2006-03-28 07:14:38 51°12.552 2°49.347 -999 -999 8.7 100100 81
2006-03-28 07:14:44 51°12.541 2°49.315 -999 359 8.7 100100 81
2006-03-28 07:14:48 51°12.533 2°49.293 -999 2 8.7 100120 81
2006-03-28 07:14:54 51°12.522 2°49.262 -999 1 8.7 100120 81
2006-03-28 07:14:58 51°12.514 2°49.24 -999 360 8.7 100090 81
2006-03-28 07:15:04 51°12.502 2°49.208 -999 359 8.7 100090 81
2006-03-28 07:15:08 51°12.495 2°49.187 -999 358 8.7 100120 81
2006-03-28 07:15:14 51°12.484 2°49.155 -999 359 8.7 100120 81
2006-03-28 07:15:19 51°12.474 2°49.129 -999 358 8.7 100110 81
2006-03-28 07:15:24 51°12.465 2°49.102 -999 354 8.7 100110 81
2006-03-28 07:15:28 51°12.457 2°49.081 -999 357 8.8 100100 81
2006-03-28 07:15:34 51°12.445 2°49.049 -999 -999 8.8 100100 81
2006-03-28 07:15:39 51°12.435 2°49.023 -999 4 8.8 100080 81
2006-03-28 07:15:44 51°12.426 2°48.997 -999 355 8.8 100080 81
2006-03-28 07:15:48 51°12.419 2°48.975 -999 355 8.8 100090 81
2006-03-28 07:15:54 51°12.407 2°48.943 -999 359 8.8 100090 81
2006-03-28 07:15:59 51°12.398 2°48.917 -999 356 8.8 100090 81
2006-03-28 07:16:04 51°12.388 2°48.889 -999 357 8.8 100090 81
2006-03-28 07:16:08 51°12.381 2°48.868 -999 353 8.8 100090 81
2006-03-28 07:16:14 51°12.37 2°48.836 -999 354 8.8 100090 81
2006-03-28 07:16:18 51°12.362 2°48.815 -999 358 8.8 100080 81
2006-03-28 07:16:24 51°12.351 2°48.783 -999 353 8.8 100080 81
2006-03-28 07:16:28 51°12.343 2°48.762 -999 359 8.8 100090 81
2006-03-28 07:16:34 51°12.332 2°48.73 -999 2 8.8 100090 81
2006-03-28 07:16:38 51°12.324 2°48.708 -999 360 8.8 100100 81
2006-03-28 07:16:43 51°12.315 2°48.682 -999 357 8.8 100100 81
2006-03-28 07:16:48 51°12.305 2°48.654 -999 357 8.8 100110 81
2006-03-28 07:16:54 51°12.294 2°48.623 -999 358 8.8 100110 81
2006-03-28 07:16:59 51°12.284 2°48.597 -999 351 8.8 100080 81
2006-03-28 07:17:03 51°12.276 2°48.576 -999 356 8.8 100080 81
2006-03-28 07:17:08 51°12.267 2°48.55 -999 357 8.8 100090 81
2006-03-28 07:17:14 51°12.255 2°48.518 -999 356 8.8 100090 81
2006-03-28 07:17:19 51°12.245 2°48.492 -999 358 8.8 100100 80
2006-03-28 07:17:24 51°12.236 2°48.465 -999 354 8.8 100100 80
2006-03-28 07:17:28 51°12.228 2°48.444 -999 354 8.8 100080 80
2006-03-28 07:17:34 51°12.217 2°48.411 -999 358 8.8 100080 80
2006-03-28 07:17:39 51°12.208 2°48.385 -999 355 8.8 100100 80
2006-03-28 07:17:44 51°12.198 2°48.359 -999 357 8.8 100100 80
2006-03-28 07:17:48 51°12.191 2°48.337 -999 355 8.8 100100 80
2006-03-28 07:17:54 51°12.179 2°48.304 -999 357 8.8 100100 80
2006-03-28 07:17:59 51°12.17 2°48.278 -999 354 8.8 100080 80
2006-03-28 07:18:04 51°12.161 2°48.251 -999 353 8.8 100080 80
2006-03-28 07:18:08 51°12.153 2°48.229 -999 358 8.8 100090 80
2006-03-28 07:18:14 51°12.142 2°48.197 -999 353 8.8 100090 80
2006-03-28 07:18:19 51°12.133 2°48.171 -999 356 8.8 100080 80
2006-03-28 07:18:24 51°12.123 2°48.144 -999 -999 8.8 100080 80
2006-03-28 07:18:28 51°12.115 2°48.123 -999 -999 8.8 100090 80
2006-03-28 07:18:34 51°12.104 2°48.091 -999 358 8.8 100090 80
2006-03-28 07:18:38 51°12.095 2°48.07 -999 357 8.8 100080 80
2006-03-28 07:18:44 51°12.084 2°48.039 -999 355 8.8 100080 80
2006-03-28 07:18:48 51°12.076 2°48.018 -999 357 8.8 100090 80
2006-03-28 07:18:54 51°12.064 2°47.985 -999 359 8.8 100090 80
2006-03-28 07:18:58 51°12.057 2°47.964 -999 359 8.8 100090 80
2006-03-28 07:19:03 51°12.047 2°47.938 -999 359 8.8 100090 80
2006-03-28 07:19:08 51°12.038 2°47.911 -999 358 8.8 100110 80
2006-03-28 07:19:14 51°12.026 2°47.879 -999 2 8.8 100110 80
2006-03-28 07:19:19 51°12.017 2°47.853 -999 -999 8.8 100100 80
2006-03-28 07:19:24 51°12.008 2°47.826 -999 359 8.8 100100 80
2006-03-28 07:19:28 51°12 2°47.804 -999 358 8.8 100090 80
2006-03-28 07:19:34 51°11.988 2°47.773 -999 354 8.8 100090 80
2006-03-28 07:19:39 51°11.979 2°47.746 -999 358 8.8 100120 80
2006-03-28 07:19:44 51°11.969 2°47.72 -999 358 8.8 100120 80
2006-03-28 07:19:48 51°11.961 2°47.698 -999 357 8.8 100130 80
2006-03-28 07:19:54 51°11.95 2°47.666 -999 359 8.8 100130 80
2006-03-28 07:19:58 51°11.943 2°47.645 -999 1 8.8 100110 80
2006-03-28 07:20:04 51°11.931 2°47.612 -999 358 8.8 100110 80
2006-03-28 07:20:08 51°11.924 2°47.591 -999 355 8.8 100100 80
2006-03-28 07:20:13 51°11.914 2°47.564 -999 352 8.8 100100 80
2006-03-28 07:20:19 51°11.903 2°47.532 -999 355 8.8 100100 80
2006-03-28 07:20:24 51°11.894 2°47.505 -999 357 8.8 100100 80
2006-03-28 07:20:28 51°11.886 2°47.484 -999 352 8.8 100110 80
2006-03-28 07:20:34 51°11.875 2°47.451 -999 350 8.8 100110 80
2006-03-28 07:20:39 51°11.866 2°47.425 -999 352 8.9 100090 80
2006-03-28 07:20:44 51°11.857 2°47.398 -999 355 8.9 100090 80
2006-03-28 07:20:48 51°11.85 2°47.376 -999 356 8.9 100110 80
2006-03-28 07:20:54 51°11.838 2°47.345 -999 351 8.9 100110 80
2006-03-28 07:20:59 51°11.829 2°47.318 -999 358 8.9 100070 80
2006-03-28 07:21:04 51°11.819 2°47.292 -999 357 8.9 100070 80
2006-03-28 07:21:08 51°11.812 2°47.27 -999 355 8.9 100100 80
2006-03-28 07:21:14 51°11.8 2°47.238 -999 358 8.9 100100 80
2006-03-28 07:21:18 51°11.793 2°47.217 -999 358 8.9 100090 80
2006-03-28 07:21:23 51°11.783 2°47.191 -999 356 8.9 100090 80
2006-03-28 07:21:28 51°11.774 2°47.164 -999 353 8.9 100100 80
2006-03-28 07:21:34 51°11.763 2°47.132 -999 359 8.9 100100 80
2006-03-28 07:21:39 51°11.754 2°47.105 -999 356 8.9 100110 80
2006-03-28 07:21:44 51°11.745 2°47.078 -999 358 8.9 100110 80
2006-03-28 07:21:48 51°11.737 2°47.057 -999 356 8.8 100110 80
2006-03-28 07:21:54 51°11.726 2°47.024 -999 357 8.8 100110 80
2006-03-28 07:21:58 51°11.719 2°47.003 -999 356 8.8 100110 80
2006-03-28 07:22:04 51°11.708 2°46.971 -999 359 8.8 100110 80
2006-03-28 07:22:08 51°11.701 2°46.949 -999 352 8.8 100090 80
2006-03-28 07:22:14 51°11.689 2°46.918 -999 357 8.8 100090 80
2006-03-28 07:22:19 51°11.68 2°46.891 -999 357 8.8 100110 80
2006-03-28 07:22:24 51°11.671 2°46.864 -999 357 8.8 100110 80
2006-03-28 07:22:28 51°11.664 2°46.843 -999 355 8.8 100120 80
2006-03-28 07:22:34 51°11.653 2°46.81 -999 355 8.8 100120 80
2006-03-28 07:22:39 51°11.644 2°46.784 -999 356 8.8 100090 80
2006-03-28 07:22:44 51°11.635 2°46.757 -999 357 8.8 100090 80
2006-03-28 07:22:48 51°11.628 2°46.735 -999 358 8.9 100100 80
2006-03-28 07:22:54 51°11.617 2°46.703 -999 356 8.9 100100 80
2006-03-28 07:22:58 51°11.61 2°46.682 -999 357 8.9 100100 80
2006-03-28 07:23:04 51°11.599 2°46.65 -999 -999 8.9 100100 80
2006-03-28 07:23:08 51°11.591 2°46.629 -999 1 8.9 100110 80
2006-03-28 07:23:14 51°11.58 2°46.597 -999 2 8.9 100110 80
2006-03-28 07:23:18 51°11.572 2°46.576 -999 358 8.9 100120 80
2006-03-28 07:23:24 51°11.561 2°46.544 -999 358 8.9 100120 80
2006-03-28 07:23:28 51°11.553 2°46.523 -999 358 8.9 100120 80
2006-03-28 07:23:34 51°11.542 2°46.491 -999 356 8.9 100120 80
2006-03-28 07:23:39 51°11.533 2°46.464 -999 358 8.9 100090 80
2006-03-28 07:23:43 51°11.526 2°46.443 -999 360 8.9 100090 80
2006-03-28 07:23:48 51°11.517 2°46.416 -999 356 8.9 100120 80
2006-03-28 07:23:54 51°11.506 2°46.383 -999 356 8.9 100120 80
2006-03-28 07:23:58 51°11.499 2°46.362 -999 357 8.8 100140 80
2006-03-28 07:24:04 51°11.489 2°46.33 -999 354 8.8 100140 80
2006-03-28 07:24:08 51°11.481 2°46.308 -999 354 8.8 100120 80
2006-03-28 07:24:14 51°11.471 2°46.276 -999 353 8.8 100120 80
2006-03-28 07:24:19 51°11.462 2°46.25 -999 356 8.8 100120 80
2006-03-28 07:24:24 51°11.453 2°46.223 -999 -999 8.8 100120 80
2006-03-28 07:24:28 51°11.446 2°46.202 -999 355 8.8 100110 80
2006-03-28 07:24:34 51°11.435 2°46.17 -999 353 8.8 100110 80
2006-03-28 07:24:39 51°11.426 2°46.144 -999 359 8.8 100100 80
2006-03-28 07:24:44 51°11.417 2°46.117 -999 354 8.8 100100 80
2006-03-28 07:24:48 51°11.409 2°46.097 -999 357 8.8 100070 80
2006-03-28 07:24:54 51°11.397 2°46.066 -999 357 8.8 100070 80
2006-03-28 07:24:59 51°11.387 2°46.04 -999 358 8.8 100080 80
2006-03-28 07:25:04 51°11.377 2°46.015 -999 357 8.8 100080 80
2006-03-28 07:25:08 51°11.37 2°45.994 -999 358 8.9 100110 80
2006-03-28 07:25:14 51°11.358 2°45.963 -999 353 8.9 100110 80
2006-03-28 07:25:18 51°11.352 2°45.941 -999 353 8.9 100120 80
2006-03-28 07:25:24 51°11.342 2°45.909 -999 355 8.9 100120 80
2006-03-28 07:25:28 51°11.335 2°45.887 -999 353 8.9 100100 80
2006-03-28 07:25:34 51°11.327 2°45.854 -999 354 8.9 100100 80
2006-03-28 07:25:39 51°11.319 2°45.826 -999 358 8.9 100110 80
2006-03-28 07:25:44 51°11.312 2°45.798 -999 359 8.9 100110 80
2006-03-28 07:25:49 51°11.304 2°45.77 -999 353 8.9 100110 80
2006-03-28 07:25:54 51°11.297 2°45.742 -999 354 8.9 100110 80
2006-03-28 07:25:58 51°11.291 2°45.72 -999 353 8.8 100090 80
2006-03-28 07:26:03 51°11.284 2°45.693 -999 353 8.8 100090 80
2006-03-28 07:26:08 51°11.276 2°45.665 -999 355 8.8 100120 80
2006-03-28 07:26:14 51°11.267 2°45.631 -999 353 8.8 100120 80
2006-03-28 07:26:19 51°11.259 2°45.604 -999 355 8.8 100080 80
2006-03-28 07:26:24 51°11.251 2°45.577 -999 356 8.8 100080 80
2006-03-28 07:26:28 51°11.244 2°45.554 -999 353 8.8 100110 80
2006-03-28 07:26:34 51°11.235 2°45.522 -999 352 8.8 100110 80
2006-03-28 07:26:38 51°11.228 2°45.5 -999 354 8.8 100090 80
2006-03-28 07:26:44 51°11.219 2°45.467 -999 -999 8.8 100090 80
2006-03-28 07:26:48 51°11.213 2°45.446 -999 356 8.8 100110 80
2006-03-28 07:26:54 51°11.203 2°45.412 -999 351 8.8 100110 80
2006-03-28 07:26:59 51°11.196 2°45.384 -999 351 8.9 100110 80
2006-03-28 07:27:04 51°11.189 2°45.357 -999 351 8.9 100110 80
2006-03-28 07:27:08 51°11.183 2°45.335 -999 351 8.9 100110 80
2006-03-28 07:27:14 51°11.174 2°45.301 -999 354 8.9 100110 80
2006-03-28 07:27:19 51°11.167 2°45.273 -999 355 8.8 100100 80
2006-03-28 07:27:24 51°11.16 2°45.245 -999 353 8.8 100100 80
2006-03-28 07:27:28 51°11.154 2°45.223 -999 354 8.8 100090 80
2006-03-28 07:27:34 51°11.145 2°45.191 -999 352 8.8 100090 80
2006-03-28 07:27:39 51°11.137 2°45.163 -999 349 8.8 100110 80
2006-03-28 07:27:44 51°11.129 2°45.135 -999 355 8.8 100110 80
2006-03-28 07:27:48 51°11.123 2°45.114 -999 353 8.8 100120 80
2006-03-28 07:27:54 51°11.114 2°45.08 -999 358 8.8 100120 80
2006-03-28 07:27:58 51°11.108 2°45.058 -999 357 8.8 100070 80
2006-03-28 07:28:04 51°11.099 2°45.025 -999 351 8.8 100070 80
2006-03-28 07:28:08 51°11.093 2°45.002 -999 351 8.8 100100 80
2006-03-28 07:28:14 51°11.085 2°44.969 -999 352 8.8 100100 80
2006-03-28 07:28:18 51°11.079 2°44.947 -999 354 8.8 100070 80
2006-03-28 07:28:23 51°11.072 2°44.919 -999 353 8.8 100070 80
2006-03-28 07:28:28 51°11.064 2°44.891 -999 352 8.9 100080 80
2006-03-28 07:28:34 51°11.055 2°44.858 -999 341 8.9 100080 80
2006-03-28 07:28:39 51°11.048 2°44.83 -999 359 8.9 100090 79
2006-03-28 07:28:44 51°11.04 2°44.802 -999 358 8.9 100090 79
2006-03-28 07:28:48 51°11.034 2°44.781 -999 3 8.9 100110 79
2006-03-28 07:28:54 51°11.025 2°44.748 -999 354 8.9 100110 79
2006-03-28 07:28:59 51°11.017 2°44.721 -999 355 8.9 100100 79
2006-03-28 07:29:04 51°11.009 2°44.693 -999 353 8.9 100100 79
2006-03-28 07:29:08 51°11.002 2°44.671 -999 357 8.9 100100 79
2006-03-28 07:29:14 51°10.993 2°44.638 -999 354 8.9 100100 79
2006-03-28 07:29:19 51°10.985 2°44.61 -999 356 8.9 100110 79
2006-03-28 07:29:24 51°10.978 2°44.583 -999 356 8.9 100110 79
2006-03-28 07:29:28 51°10.972 2°44.56 -999 356 8.9 100080 79
2006-03-28 07:29:34 51°10.963 2°44.527 -999 356 8.9 100080 79
2006-03-28 07:29:39 51°10.956 2°44.499 -999 352 8.9 100100 79
2006-03-28 07:29:44 51°10.949 2°44.471 -999 354 8.9 100100 79
2006-03-28 07:29:49 51°10.941 2°44.443 -999 358 8.9 100110 79
2006-03-28 07:29:54 51°10.934 2°44.415 -999 355 8.9 100110 79
2006-03-28 07:29:59 51°10.926 2°44.388 -999 355 8.9 100120 79
2006-03-28 07:30:04 51°10.919 2°44.36 -999 356 8.9 100120 79
2006-03-28 07:30:08 51°10.913 2°44.337 -999 358 8.9 100100 79
2006-03-28 07:30:14 51°10.904 2°44.304 -999 355 8.9 100100 79
2006-03-28 07:30:18 51°10.898 2°44.281 -999 2 8.9 100090 79
2006-03-28 07:30:24 51°10.888 2°44.248 -999 352 8.9 100090 79
2006-03-28 07:30:29 51°10.88 2°44.221 -999 356 8.9 100120 79
2006-03-28 07:30:34 51°10.872 2°44.193 -999 356 8.9 100120 79
2006-03-28 07:30:38 51°10.866 2°44.171 -999 359 8.9 100110 79
2006-03-28 07:30:44 51°10.857 2°44.137 -999 355 8.9 100110 79
2006-03-28 07:30:48 51°10.85 2°44.115 -999 357 8.9 100140 79
2006-03-28 07:30:54 51°10.842 2°44.081 -999 353 8.9 100140 79
2006-03-28 07:30:58 51°10.836 2°44.058 -999 357 8.8 100130 79
2006-03-28 07:31:03 51°10.829 2°44.03 -999 356 8.8 100130 79
2006-03-28 07:31:08 51°10.822 2°44.001 -999 354 8.8 100110 79
2006-03-28 07:31:14 51°10.814 2°43.968 -999 357 8.8 100110 79
2006-03-28 07:31:19 51°10.807 2°43.939 -999 353 8.8 100100 80
2006-03-28 07:31:24 51°10.8 2°43.911 -999 356 8.8 100100 80
2006-03-28 07:31:28 51°10.794 2°43.889 -999 357 8.8 100140 80
2006-03-28 07:31:34 51°10.785 2°43.855 -999 358 8.8 100140 80
2006-03-28 07:31:39 51°10.778 2°43.827 -999 359 8.8 100130 80
2006-03-28 07:31:44 51°10.77 2°43.799 -999 356 8.8 100130 80
2006-03-28 07:31:48 51°10.764 2°43.776 -999 357 8.8 100120 80
2006-03-28 07:31:54 51°10.755 2°43.744 -999 356 8.8 100120 80
2006-03-28 07:31:59 51°10.748 2°43.716 -999 355 8.8 100110 80
2006-03-28 07:32:04 51°10.74 2°43.688 -999 356 8.8 100110 80
2006-03-28 07:32:08 51°10.734 2°43.665 -999 352 8.7 100120 80
2006-03-28 07:32:14 51°10.726 2°43.632 -999 352 8.7 100120 80
2006-03-28 07:32:18 51°10.72 2°43.61 -999 351 8.8 100110 80
2006-03-28 07:32:24 51°10.712 2°43.576 -999 353 8.8 100110 80
2006-03-28 07:32:28 51°10.707 2°43.554 -999 356 8.8 100110 80
2006-03-28 07:32:34 51°10.698 2°43.52 -999 350 8.8 100110 80
2006-03-28 07:32:39 51°10.691 2°43.493 -999 354 8.7 100110 80
2006-03-28 07:32:44 51°10.683 2°43.465 -999 351 8.7 100110 80
2006-03-28 07:32:49 51°10.676 2°43.438 -999 354 8.7 100130 80
2006-03-28 07:32:54 51°10.668 2°43.41 -999 357 8.7 100130 80
2006-03-28 07:32:59 51°10.66 2°43.383 -999 353 8.7 100120 80
2006-03-28 07:33:04 51°10.651 2°43.356 -999 354 8.7 100120 80
2006-03-28 07:33:09 51°10.643 2°43.329 -999 354 8.8 100090 80
2006-03-28 07:33:14 51°10.635 2°43.303 -999 359 8.8 100090 80
2006-03-28 07:33:18 51°10.628 2°43.281 -999 355 8.7 100110 80
2006-03-28 07:33:24 51°10.618 2°43.248 -999 354 8.7 100110 80
2006-03-28 07:33:28 51°10.613 2°43.226 -999 351 8.7 100120 80
2006-03-28 07:33:34 51°10.604 2°43.193 -999 348 8.7 100120 80
2006-03-28 07:33:39 51°10.598 2°43.164 -999 350 8.7 100130 80
2006-03-28 07:33:44 51°10.591 2°43.136 -999 354 8.7 100130 80
2006-03-28 07:33:48 51°10.587 2°43.114 -999 352 8.7 100110 80
2006-03-28 07:33:54 51°10.579 2°43.08 -999 350 8.7 100110 80
2006-03-28 07:33:59 51°10.574 2°43.051 -999 350 8.7 100100 80
2006-03-28 07:34:04 51°10.568 2°43.023 -999 352 8.7 100100 80
2006-03-28 07:34:08 51°10.563 2°43 -999 348 8.7 100120 80
2006-03-28 07:34:12 51°10.558 2°42.978 -999 349 8.7 100120 80
2006-03-28 07:34:19 51°10.549 2°42.938 -999 354 8.7 100110 80
2006-03-28 07:34:24 51°10.543 2°42.909 -999 348 8.7 100110 80
2006-03-28 07:34:28 51°10.538 2°42.887 -999 354 8.7 100110 80
2006-03-28 07:34:34 51°10.53 2°42.853 -999 352 8.7 100110 80
2006-03-28 07:34:38 51°10.524 2°42.831 -999 351 8.8 100110 80
2006-03-28 07:34:43 51°10.516 2°42.803 -999 352 8.8 100110 80
2006-03-28 07:34:48 51°10.509 2°42.776 -999 352 8.7 100120 81
2006-03-28 07:34:54 51°10.5 2°42.742 -999 350 8.7 100120 81
2006-03-28 07:34:59 51°10.493 2°42.715 -999 356 8.7 100110 81
2006-03-28 07:35:04 51°10.485 2°42.687 -999 350 8.7 100110 81
2006-03-28 07:35:08 51°10.479 2°42.665 -999 352 8.7 100120 81
2006-03-28 07:35:14 51°10.471 2°42.632 -999 351 8.7 100120 81
2006-03-28 07:35:19 51°10.464 2°42.603 -999 353 8.7 100090 81
2006-03-28 07:35:24 51°10.458 2°42.575 -999 353 8.7 100090 81
2006-03-28 07:35:28 51°10.453 2°42.552 -999 349 8.7 100100 81
2006-03-28 07:35:34 51°10.446 2°42.518 -999 350 8.7 100100 81
2006-03-28 07:35:38 51°10.441 2°42.495 -999 349 8.7 100110 81
2006-03-28 07:35:44 51°10.434 2°42.461 -999 -999 8.7 100110 81
2006-03-28 07:35:48 51°10.429 2°42.438 -999 352 8.7 100110 81
2006-03-28 07:35:54 51°10.422 2°42.404 -999 351 8.7 100110 81
2006-03-28 07:35:59 51°10.415 2°42.376 -999 351 8.7 100120 81
2006-03-28 07:36:04 51°10.409 2°42.347 -999 352 8.7 100120 81
2006-03-28 07:36:08 51°10.404 2°42.325 -999 351 8.7 100120 80
2006-03-28 07:36:14 51°10.395 2°42.291 -999 352 8.7 100120 80
2006-03-28 07:36:19 51°10.389 2°42.263 -999 351 8.7 100100 80
2006-03-28 07:36:24 51°10.382 2°42.235 -999 350 8.7 100100 80
2006-03-28 07:36:28 51°10.376 2°42.212 -999 355 8.7 100130 80
2006-03-28 07:36:34 51°10.368 2°42.178 -999 351 8.7 100130 80
2006-03-28 07:36:38 51°10.362 2°42.156 -999 350 8.7 100120 80
2006-03-28 07:36:44 51°10.354 2°42.123 -999 353 8.7 100120 80
2006-03-28 07:36:49 51°10.347 2°42.095 -999 349 8.7 100130 80
2006-03-28 07:36:54 51°10.341 2°42.066 -999 349 8.7 100130 80
2006-03-28 07:36:58 51°10.336 2°42.044 -999 348 8.7 100110 81
2006-03-28 07:37:04 51°10.329 2°42.009 -999 348 8.7 100110 81
2006-03-28 07:37:08 51°10.324 2°41.987 -999 349 8.7 100120 81
2006-03-28 07:37:14 51°10.316 2°41.952 -999 352 8.7 100120 81
2006-03-28 07:37:18 51°10.312 2°41.93 -999 351 8.7 100100 81
2006-03-28 07:37:24 51°10.304 2°41.896 -999 351 8.7 100100 81
2006-03-28 07:37:28 51°10.299 2°41.874 -999 352 8.7 100110 81
2006-03-28 07:37:34 51°10.291 2°41.84 -999 350 8.7 100110 81
2006-03-28 07:37:38 51°10.286 2°41.817 -999 353 8.7 100110 81
2006-03-28 07:37:44 51°10.278 2°41.784 -999 353 8.7 100110 81
2006-03-28 07:37:48 51°10.272 2°41.761 -999 353 8.7 100120 81
2006-03-28 07:37:54 51°10.264 2°41.728 -999 352 8.7 100120 81
2006-03-28 07:37:59 51°10.257 2°41.7 -999 353 8.7 100110 81
2006-03-28 07:38:04 51°10.25 2°41.672 -999 352 8.7 100110 81
2006-03-28 07:38:09 51°10.242 2°41.645 -999 353 8.7 100110 81
2006-03-28 07:38:14 51°10.235 2°41.617 -999 356 8.7 100110 81
2006-03-28 07:38:19 51°10.228 2°41.589 -999 356 8.7 100120 81
2006-03-28 07:38:24 51°10.221 2°41.561 -999 355 8.7 100120 81
2006-03-28 07:38:28 51°10.215 2°41.539 -999 354 8.7 100130 81
2006-03-28 07:38:34 51°10.207 2°41.505 -999 352 8.7 100130 81
2006-03-28 07:38:39 51°10.201 2°41.476 -999 352 8.7 100130 80
2006-03-28 07:38:44 51°10.194 2°41.448 -999 349 8.7 100130 80
2006-03-28 07:38:48 51°10.19 2°41.426 -999 350 8.7 100130 80
2006-03-28 07:38:54 51°10.182 2°41.391 -999 346 8.7 100130 80
2006-03-28 07:38:59 51°10.176 2°41.363 -999 350 8.7 100130 81
2006-03-28 07:39:04 51°10.17 2°41.334 -999 351 8.7 100130 81
2006-03-28 07:39:08 51°10.166 2°41.312 -999 352 8.7 100120 81
2006-03-28 07:39:14 51°10.158 2°41.277 -999 352 8.7 100120 81
2006-03-28 07:39:18 51°10.154 2°41.254 -999 351 8.7 100130 81
2006-03-28 07:39:24 51°10.146 2°41.22 -999 351 8.7 100130 81
2006-03-28 07:39:28 51°10.141 2°41.197 -999 348 8.7 100130 81
2006-03-28 07:39:34 51°10.133 2°41.163 -999 354 8.7 100130 81
2006-03-28 07:39:39 51°10.127 2°41.136 -999 353 8.7 100130 80
2006-03-28 07:39:44 51°10.121 2°41.107 -999 355 8.7 100130 80
2006-03-28 07:39:48 51°10.115 2°41.085 -999 355 8.7 100130 81
2006-03-28 07:39:54 51°10.107 2°41.051 -999 354 8.7 100130 81
2006-03-28 07:39:58 51°10.101 2°41.029 -999 349 8.7 100130 81
2006-03-28 07:40:04 51°10.093 2°40.995 -999 356 8.7 100130 81
2006-03-28 07:40:08 51°10.088 2°40.973 -999 354 8.7 100130 81
2006-03-28 07:40:14 51°10.08 2°40.939 -999 351 8.7 100130 81
2006-03-28 07:40:19 51°10.074 2°40.91 -999 353 8.7 100140 81
2006-03-28 07:40:24 51°10.068 2°40.882 -999 351 8.7 100140 81
2006-03-28 07:40:28 51°10.063 2°40.86 -999 352 8.7 100140 81
2006-03-28 07:40:34 51°10.056 2°40.825 -999 350 8.7 100140 81
2006-03-28 07:40:39 51°10.05 2°40.797 -999 351 8.7 100130 81
2006-03-28 07:40:44 51°10.044 2°40.768 -999 351 8.7 100130 81
2006-03-28 07:40:48 51°10.039 2°40.746 -999 353 8.6 100120 81
2006-03-28 07:40:54 51°10.032 2°40.712 -999 349 8.6 100120 81
2006-03-28 07:40:59 51°10.025 2°40.685 -999 350 8.7 100130 81
2006-03-28 07:41:04 51°10.019 2°40.656 -999 348 8.7 100130 81
2006-03-28 07:41:08 51°10.014 2°40.634 -999 353 8.7 100140 81
2006-03-28 07:41:14 51°10.006 2°40.601 -999 349 8.7 100140 81
2006-03-28 07:41:18 51°10.001 2°40.579 -999 351 8.7 100130 81
2006-03-28 07:41:24 51°9.993 2°40.545 -999 351 8.7 100130 81
2006-03-28 07:41:28 51°9.988 2°40.522 -999 351 8.7 100130 81
2006-03-28 07:41:34 51°9.98 2°40.488 -999 351 8.7 100130 81
2006-03-28 07:41:39 51°9.974 2°40.46 -999 352 8.7 100140 81
2006-03-28 07:41:43 51°9.969 2°40.438 -999 351 8.7 100140 81
2006-03-28 07:41:48 51°9.962 2°40.41 -999 349 8.7 100120 81
2006-03-28 07:41:54 51°9.954 2°40.377 -999 355 8.7 100120 81
2006-03-28 07:41:58 51°9.949 2°40.354 -999 350 8.7 100140 81
2006-03-28 07:42:04 51°9.942 2°40.321 -999 354 8.7 100140 81
2006-03-28 07:42:08 51°9.937 2°40.298 -999 350 8.7 100130 81
2006-03-28 07:42:14 51°9.929 2°40.264 -999 352 8.7 100130 81
2006-03-28 07:42:19 51°9.923 2°40.236 -999 350 8.7 100120 81
2006-03-28 07:42:24 51°9.917 2°40.208 -999 354 8.7 100120 81
2006-03-28 07:42:28 51°9.911 2°40.185 -999 349 8.7 100140 81
2006-03-28 07:42:34 51°9.904 2°40.152 -999 350 8.7 100140 81
2006-03-28 07:42:39 51°9.897 2°40.125 -999 350 8.7 100130 81
2006-03-28 07:42:44 51°9.891 2°40.097 -999 350 8.7 100130 81
2006-03-28 07:42:48 51°9.885 2°40.074 -999 351 8.7 100120 81
2006-03-28 07:42:54 51°9.878 2°40.04 -999 353 8.7 100120 81
2006-03-28 07:42:59 51°9.871 2°40.012 -999 353 8.7 100130 81
2006-03-28 07:43:04 51°9.865 2°39.984 -999 352 8.7 100130 81
2006-03-28 07:43:08 51°9.86 2°39.961 -999 350 8.7 100130 81
2006-03-28 07:43:14 51°9.853 2°39.927 -999 352 8.7 100130 81
2006-03-28 07:43:18 51°9.848 2°39.905 -999 353 8.7 100120 81
2006-03-28 07:43:24 51°9.841 2°39.871 -999 350 8.7 100120 81
2006-03-28 07:43:29 51°9.835 2°39.843 -999 349 8.7 100140 81
2006-03-28 07:43:34 51°9.828 2°39.814 -999 354 8.7 100140 81
2006-03-28 07:43:38 51°9.823 2°39.792 -999 353 8.7 100130 81
2006-03-28 07:43:44 51°9.815 2°39.759 -999 351 8.7 100130 81
2006-03-28 07:43:48 51°9.81 2°39.736 -999 351 8.7 100130 81
2006-03-28 07:43:54 51°9.802 2°39.702 -999 353 8.7 100130 81
2006-03-28 07:43:59 51°9.795 2°39.674 -999 353 8.7 100130 81
2006-03-28 07:44:04 51°9.789 2°39.646 -999 353 8.7 100130 81
2006-03-28 07:44:08 51°9.783 2°39.624 -999 350 8.7 100130 81
2006-03-28 07:44:14 51°9.776 2°39.59 -999 352 8.7 100130 81
2006-03-28 07:44:18 51°9.77 2°39.567 -999 355 8.7 100140 81
2006-03-28 07:44:24 51°9.763 2°39.534 -999 349 8.7 100140 81
2006-03-28 07:44:28 51°9.758 2°39.511 -999 349 8.7 100140 81
2006-03-28 07:44:34 51°9.751 2°39.477 -999 352 8.7 100140 81
2006-03-28 07:44:39 51°9.745 2°39.448 -999 350 8.7 100120 81
2006-03-28 07:44:44 51°9.739 2°39.42 -999 348 8.7 100120 81
2006-03-28 07:44:48 51°9.734 2°39.398 -999 350 8.7 100120 81
2006-03-28 07:44:54 51°9.726 2°39.364 -999 353 8.7 100120 81
2006-03-28 07:44:59 51°9.719 2°39.336 -999 351 8.7 100120 81
2006-03-28 07:45:04 51°9.713 2°39.309 -999 349 8.7 100120 81
2006-03-28 07:45:08 51°9.707 2°39.286 -999 349 8.7 100120 81
2006-03-28 07:45:13 51°9.701 2°39.258 -999 347 8.7 100120 81
2006-03-28 07:45:19 51°9.693 2°39.224 -999 350 8.7 100110 81
2006-03-28 07:45:24 51°9.686 2°39.197 -999 351 8.7 100110 81
2006-03-28 07:45:28 51°9.681 2°39.174 -999 350 8.8 100140 81
2006-03-28 07:45:34 51°9.674 2°39.14 -999 354 8.8 100140 81
2006-03-28 07:45:39 51°9.668 2°39.112 -999 348 8.7 100130 80
2006-03-28 07:45:44 51°9.662 2°39.083 -999 359 8.7 100130 80
2006-03-28 07:45:48 51°9.657 2°39.061 -999 351 8.7 100130 80
2006-03-28 07:45:54 51°9.649 2°39.027 -999 352 8.7 100130 80
2006-03-28 07:45:58 51°9.644 2°39.005 -999 353 8.7 100130 80
2006-03-28 07:46:04 51°9.637 2°38.971 -999 353 8.7 100130 80
2006-03-28 07:46:08 51°9.632 2°38.949 -999 2 8.7 100120 80
2006-03-28 07:46:14 51°9.625 2°38.915 -999 349 8.7 100120 80
2006-03-28 07:46:19 51°9.618 2°38.887 -999 350 8.7 100100 80
2006-03-28 07:46:24 51°9.612 2°38.86 -999 350 8.7 100100 80
2006-03-28 07:46:28 51°9.607 2°38.837 -999 352 8.7 100110 80
2006-03-28 07:46:34 51°9.599 2°38.805 -999 350 8.7 100110 80
2006-03-28 07:46:39 51°9.593 2°38.776 -999 347 8.7 100120 80
2006-03-28 07:46:44 51°9.587 2°38.749 -999 346 8.7 100120 80
2006-03-28 07:46:49 51°9.581 2°38.721 -999 346 8.8 100110 80
2006-03-28 07:46:54 51°9.574 2°38.694 -999 350 8.8 100110 80
2006-03-28 07:46:59 51°9.569 2°38.666 -999 345 8.8 100120 80
2006-03-28 07:47:04 51°9.562 2°38.638 -999 345 8.8 100120 80
2006-03-28 07:47:08 51°9.557 2°38.616 -999 347 8.8 100110 80
2006-03-28 07:47:14 51°9.55 2°38.582 -999 347 8.8 100110 80
2006-03-28 07:47:19 51°9.544 2°38.555 -999 347 8.8 100110 80
2006-03-28 07:47:24 51°9.537 2°38.527 -999 346 8.8 100110 80
2006-03-28 07:47:28 51°9.532 2°38.505 -999 344 8.8 100120 80
2006-03-28 07:47:34 51°9.524 2°38.472 -999 347 8.8 100120 80
2006-03-28 07:47:39 51°9.518 2°38.444 -999 347 8.8 100100 80
2006-03-28 07:47:44 51°9.512 2°38.416 -999 349 8.8 100100 80
2006-03-28 07:47:48 51°9.507 2°38.394 -999 349 8.8 100120 80
2006-03-28 07:47:54 51°9.499 2°38.36 -999 351 8.8 100120 80
2006-03-28 07:47:59 51°9.493 2°38.334 -999 355 8.8 100120 80
2006-03-28 07:48:04 51°9.486 2°38.306 -999 354 8.8 100120 80
2006-03-28 07:48:08 51°9.481 2°38.283 -999 350 8.8 100110 80
2006-03-28 07:48:14 51°9.473 2°38.25 -999 353 8.8 100110 80
2006-03-28 07:48:18 51°9.469 2°38.228 -999 352 8.8 100110 80
2006-03-28 07:48:24 51°9.461 2°38.194 -999 349 8.8 100110 80
2006-03-28 07:48:28 51°9.456 2°38.172 -999 349 8.8 100130 79
2006-03-28 07:48:34 51°9.449 2°38.138 -999 350 8.8 100130 79
2006-03-28 07:48:39 51°9.443 2°38.11 -999 349 8.9 100110 79
2006-03-28 07:48:44 51°9.437 2°38.082 -999 350 8.9 100110 79
2006-03-28 07:48:48 51°9.432 2°38.06 -999 350 8.8 100120 79
2006-03-28 07:48:54 51°9.425 2°38.027 -999 351 8.8 100120 79
2006-03-28 07:48:59 51°9.418 2°37.999 -999 349 8.8 100120 79
2006-03-28 07:49:04 51°9.412 2°37.971 -999 353 8.8 100120 79
2006-03-28 07:49:08 51°9.407 2°37.949 -999 349 8.8 100130 79
2006-03-28 07:49:14 51°9.399 2°37.916 -999 348 8.8 100130 79
2006-03-28 07:49:18 51°9.394 2°37.894 -999 354 8.8 100130 79
2006-03-28 07:49:24 51°9.387 2°37.861 -999 351 8.8 100130 79
2006-03-28 07:49:28 51°9.382 2°37.838 -999 349 8.8 100120 79
2006-03-28 07:49:34 51°9.374 2°37.805 -999 350 8.8 100120 79
2006-03-28 07:49:39 51°9.368 2°37.778 -999 349 8.8 100130 79
2006-03-28 07:49:44 51°9.361 2°37.749 -999 348 8.8 100130 79
2006-03-28 07:49:48 51°9.356 2°37.727 -999 348 8.8 100120 79
2006-03-28 07:49:54 51°9.349 2°37.694 -999 345 8.8 100120 79
2006-03-28 07:49:59 51°9.343 2°37.667 -999 350 8.8 100110 80
2006-03-28 07:50:04 51°9.337 2°37.638 -999 349 8.8 100110 80
2006-03-28 07:50:08 51°9.332 2°37.616 -999 346 8.8 100130 80
2006-03-28 07:50:14 51°9.325 2°37.583 -999 351 8.8 100130 80
2006-03-28 07:50:18 51°9.32 2°37.56 -999 351 8.8 100130 80
2006-03-28 07:50:24 51°9.312 2°37.526 -999 350 8.8 100130 80
2006-03-28 07:50:29 51°9.306 2°37.499 -999 352 8.8 100130 80
2006-03-28 07:50:34 51°9.3 2°37.471 -999 353 8.8 100130 80
2006-03-28 07:50:38 51°9.295 2°37.448 -999 349 8.8 100140 80
2006-03-28 07:50:44 51°9.288 2°37.415 -999 -999 8.8 100140 80
2006-03-28 07:50:48 51°9.283 2°37.392 -999 351 8.8 100130 80
2006-03-28 07:50:54 51°9.276 2°37.359 -999 350 8.8 100130 80
2006-03-28 07:50:58 51°9.271 2°37.336 -999 345 8.8 100140 80
2006-03-28 07:51:03 51°9.265 2°37.308 -999 348 8.8 100140 80
2006-03-28 07:51:08 51°9.259 2°37.28 -999 343 8.7 100140 80
2006-03-28 07:51:14 51°9.251 2°37.246 -999 346 8.7 100140 80
2006-03-28 07:51:19 51°9.245 2°37.219 -999 349 8.7 100140 80
2006-03-28 07:51:24 51°9.239 2°37.191 -999 350 8.7 100140 80
2006-03-28 07:51:28 51°9.234 2°37.169 -999 352 8.7 100130 80
2006-03-28 07:51:34 51°9.226 2°37.135 -999 353 8.7 100130 80
2006-03-28 07:51:39 51°9.22 2°37.107 -999 350 8.7 100120 80
2006-03-28 07:51:44 51°9.213 2°37.079 -999 349 8.7 100120 80
2006-03-28 07:51:48 51°9.208 2°37.057 -999 347 8.7 100130 80
2006-03-28 07:51:54 51°9.201 2°37.024 -999 352 8.7 100130 80
2006-03-28 07:51:58 51°9.196 2°37.001 -999 349 8.7 100110 80
2006-03-28 07:52:04 51°9.189 2°36.968 -999 347 8.7 100110 80
2006-03-28 07:52:08 51°9.184 2°36.945 -999 349 8.7 100130 80
2006-03-28 07:52:14 51°9.177 2°36.911 -999 352 8.7 100130 80
2006-03-28 07:52:19 51°9.172 2°36.884 -999 348 8.7 100130 80
2006-03-28 07:52:24 51°9.165 2°36.855 -999 345 8.7 100130 80
2006-03-28 07:52:28 51°9.161 2°36.833 -999 347 8.7 100110 80
2006-03-28 07:52:34 51°9.153 2°36.799 -999 348 8.7 100110 80
2006-03-28 07:52:39 51°9.147 2°36.771 -999 347 8.7 100130 80
2006-03-28 07:52:44 51°9.141 2°36.743 -999 351 8.7 100130 80
2006-03-28 07:52:48 51°9.135 2°36.721 -999 348 8.7 100120 80
2006-03-28 07:52:54 51°9.128 2°36.688 -999 350 8.7 100120 80
2006-03-28 07:52:58 51°9.123 2°36.665 -999 348 8.7 100120 80
2006-03-28 07:53:04 51°9.115 2°36.632 -999 351 8.7 100120 80
2006-03-28 07:53:08 51°9.11 2°36.609 -999 349 8.7 100100 80
2006-03-28 07:53:14 51°9.102 2°36.576 -999 350 8.7 100100 80
2006-03-28 07:53:19 51°9.096 2°36.548 -999 347 8.7 100120 80
2006-03-28 07:53:24 51°9.09 2°36.519 -999 350 8.7 100120 80
2006-03-28 07:53:28 51°9.085 2°36.497 -999 349 8.7 100130 80
2006-03-28 07:53:34 51°9.078 2°36.462 -999 350 8.7 100130 80
2006-03-28 07:53:39 51°9.072 2°36.434 -999 341 8.7 100130 80
2006-03-28 07:53:44 51°9.066 2°36.405 -999 349 8.7 100130 80
2006-03-28 07:53:48 51°9.062 2°36.383 -999 354 8.7 100140 80
2006-03-28 07:53:54 51°9.055 2°36.348 -999 347 8.7 100140 80
2006-03-28 07:53:59 51°9.048 2°36.32 -999 352 8.7 100120 80
2006-03-28 07:54:04 51°9.042 2°36.291 -999 352 8.7 100120 80
2006-03-28 07:54:08 51°9.037 2°36.267 -999 353 8.7 100130 80
2006-03-28 07:54:14 51°9.03 2°36.233 -999 353 8.7 100130 80
2006-03-28 07:54:19 51°9.023 2°36.205 -999 354 8.7 100130 80
2006-03-28 07:54:24 51°9.017 2°36.177 -999 354 8.7 100130 80
2006-03-28 07:54:28 51°9.012 2°36.154 -999 356 8.7 100120 80
2006-03-28 07:54:34 51°9.004 2°36.12 -999 354 8.7 100120 80
2006-03-28 07:54:39 51°8.997 2°36.092 -999 350 8.7 100130 80
2006-03-28 07:54:44 51°8.991 2°36.064 -999 354 8.7 100130 80
2006-03-28 07:54:48 51°8.986 2°36.041 -999 355 8.7 100130 80
2006-03-28 07:54:54 51°8.978 2°36.007 -999 354 8.7 100130 80
2006-03-28 07:54:58 51°8.973 2°35.984 -999 351 8.7 100130 80
2006-03-28 07:55:04 51°8.966 2°35.949 -999 348 8.7 100130 80
2006-03-28 07:55:08 51°8.961 2°35.927 -999 351 8.7 100140 80
2006-03-28 07:55:14 51°8.953 2°35.893 -999 349 8.7 100140 80
2006-03-28 07:55:18 51°8.948 2°35.87 -999 349 8.7 100160 80
2006-03-28 07:55:24 51°8.94 2°35.837 -999 350 8.7 100160 80
2006-03-28 07:55:28 51°8.934 2°35.814 -999 355 8.7 100130 80
2006-03-28 07:55:34 51°8.926 2°35.781 -999 357 8.7 100130 80
2006-03-28 07:55:39 51°8.919 2°35.753 -999 355 8.7 100130 80
2006-03-28 07:55:44 51°8.911 2°35.725 -999 351 8.7 100130 80
2006-03-28 07:55:49 51°8.904 2°35.697 -999 352 8.7 100130 80
2006-03-28 07:55:54 51°8.897 2°35.669 -999 349 8.7 100130 80
2006-03-28 07:55:59 51°8.889 2°35.642 -999 353 8.7 100140 80
2006-03-28 07:56:04 51°8.882 2°35.614 -999 352 8.7 100140 80
2006-03-28 07:56:08 51°8.877 2°35.592 -999 354 8.7 100130 80
2006-03-28 07:56:14 51°8.868 2°35.558 -999 351 8.7 100130 80
2006-03-28 07:56:18 51°8.862 2°35.537 -999 352 8.7 100130 80
2006-03-28 07:56:24 51°8.853 2°35.503 -999 347 8.7 100130 80
2006-03-28 07:56:28 51°8.848 2°35.482 -999 348 8.7 100090 80
2006-03-28 07:56:33 51°8.84 2°35.454 -999 346 8.7 100090 80
2006-03-28 07:56:39 51°8.832 2°35.421 -999 351 8.7 100120 80
2006-03-28 07:56:44 51°8.824 2°35.393 -999 348 8.7 100120 80
2006-03-28 07:56:48 51°8.819 2°35.371 -999 348 8.7 100140 80
2006-03-28 07:56:52 51°8.813 2°35.348 -999 349 8.7 100140 80
2006-03-28 07:56:59 51°8.803 2°35.31 -999 349 8.8 100130 80
2006-03-28 07:57:04 51°8.796 2°35.281 -999 356 8.8 100130 80
2006-03-28 07:57:08 51°8.79 2°35.259 -999 358 8.8 100110 80
2006-03-28 07:57:14 51°8.782 2°35.226 -999 352 8.8 100110 80
2006-03-28 07:57:18 51°8.776 2°35.204 -999 351 8.8 100080 80
2006-03-28 07:57:24 51°8.767 2°35.17 -999 351 8.8 100080 80
2006-03-28 07:57:28 51°8.762 2°35.148 -999 356 8.8 100100 80
2006-03-28 07:57:34 51°8.753 2°35.115 -999 352 8.8 100100 80
2006-03-28 07:57:38 51°8.747 2°35.093 -999 355 8.8 100100 80
2006-03-28 07:57:44 51°8.738 2°35.059 -999 354 8.8 100100 80
2006-03-28 07:57:49 51°8.73 2°35.031 -999 353 8.9 100110 79
2006-03-28 07:57:54 51°8.724 2°35.003 -999 351 8.9 100110 79
2006-03-28 07:57:59 51°8.716 2°34.976 -999 353 8.9 100120 79
2006-03-28 07:58:04 51°8.709 2°34.947 -999 349 8.9 100120 79
2006-03-28 07:58:09 51°8.702 2°34.919 -999 352 8.9 100100 79
2006-03-28 07:58:14 51°8.695 2°34.891 -999 350 8.9 100100 79
2006-03-28 07:58:18 51°8.689 2°34.869 -999 355 8.9 100120 79
2006-03-28 07:58:24 51°8.68 2°34.835 -999 354 8.9 100120 79
2006-03-28 07:58:28 51°8.674 2°34.814 -999 351 8.9 100130 79
2006-03-28 07:58:34 51°8.665 2°34.781 -999 356 8.9 100130 79
2006-03-28 07:58:39 51°8.657 2°34.753 -999 350 8.8 100130 79
2006-03-28 07:58:44 51°8.65 2°34.725 -999 355 8.8 100130 79
2006-03-28 07:58:48 51°8.644 2°34.703 -999 354 8.9 100130 79
2006-03-28 07:58:53 51°8.637 2°34.674 -999 350 8.9 100130 79
2006-03-28 07:58:59 51°8.628 2°34.641 -999 354 8.9 100100 79
2006-03-28 07:59:03 51°8.622 2°34.619 -999 351 8.9 100100 79
2006-03-28 07:59:08 51°8.615 2°34.59 -999 350 8.9 100130 79
2006-03-28 07:59:14 51°8.607 2°34.557 -999 356 8.9 100130 79
2006-03-28 07:59:18 51°8.601 2°34.535 -999 356 8.9 100140 79
2006-03-28 07:59:24 51°8.592 2°34.501 -999 351 8.9 100140 79
2006-03-28 07:59:29 51°8.585 2°34.473 -999 354 8.9 100130 79
2006-03-28 07:59:34 51°8.577 2°34.445 -999 358 8.9 100130 79
2006-03-28 07:59:38 51°8.571 2°34.422 -999 354 8.9 100120 79
2006-03-28 07:59:44 51°8.562 2°34.389 -999 352 8.9 100120 79
2006-03-28 07:59:48 51°8.556 2°34.367 -999 351 8.8 100120 79
2006-03-28 07:59:54 51°8.547 2°34.335 -999 351 8.8 100120 79
2006-03-28 07:59:58 51°8.541 2°34.312 -999 352 8.8 100120 79
2006-03-28 08:00:04 51°8.532 2°34.279 -999 356 8.8 100120 79
2006-03-28 08:00:09 51°8.524 2°34.251 -999 356 8.8 100150 79
2006-03-28 08:00:14 51°8.517 2°34.223 -999 352 8.8 100150 79
2006-03-28 08:00:19 51°8.51 2°34.195 -999 350 8.8 100120 79
2006-03-28 08:00:24 51°8.502 2°34.168 -999 353 8.8 100120 79
2006-03-28 08:00:28 51°8.497 2°34.145 -999 352 8.8 100130 79
2006-03-28 08:00:34 51°8.487 2°34.112 -999 356 8.8 100130 79
2006-03-28 08:00:39 51°8.48 2°34.084 -999 355 8.8 100130 79
2006-03-28 08:00:44 51°8.472 2°34.057 -999 357 8.8 100130 79
2006-03-28 08:00:49 51°8.464 2°34.03 -999 355 8.8 100110 79
2006-03-28 08:00:54 51°8.456 2°34.002 -999 359 8.8 100110 79
2006-03-28 08:00:59 51°8.447 2°33.975 -999 358 8.8 100130 79
2006-03-28 08:01:04 51°8.439 2°33.949 -999 354 8.8 100130 79
2006-03-28 08:01:09 51°8.43 2°33.921 -999 359 8.8 100120 79
2006-03-28 08:01:14 51°8.422 2°33.895 -999 355 8.8 100120 79
2006-03-28 08:01:19 51°8.414 2°33.868 -999 357 8.8 100130 79
2006-03-28 08:01:24 51°8.406 2°33.84 -999 3 8.8 100130 79
2006-03-28 08:01:28 51°8.399 2°33.818 -999 349 8.8 100110 79
2006-03-28 08:01:34 51°8.39 2°33.786 -999 352 8.8 100110 79
2006-03-28 08:01:39 51°8.382 2°33.758 -999 355 8.8 100120 79
2006-03-28 08:01:44 51°8.374 2°33.732 -999 349 8.8 100120 79
2006-03-28 08:01:49 51°8.366 2°33.705 -999 352 8.8 100150 79
2006-03-28 08:01:54 51°8.357 2°33.678 -999 357 8.8 100150 79
2006-03-28 08:01:58 51°8.35 2°33.657 -999 350 8.8 100120 79
2006-03-28 08:02:04 51°8.34 2°33.626 -999 352 8.8 100120 79
2006-03-28 08:02:08 51°8.334 2°33.604 -999 358 8.8 100110 79
2006-03-28 08:02:14 51°8.323 2°33.573 -999 354 8.8 100110 79
2006-03-28 08:02:19 51°8.315 2°33.546 -999 351 8.8 100130 79
2006-03-28 08:02:24 51°8.306 2°33.521 -999 353 8.8 100130 79
2006-03-28 08:02:28 51°8.298 2°33.5 -999 354 8.8 100110 79
2006-03-28 08:02:34 51°8.287 2°33.469 -999 355 8.8 100110 79
2006-03-28 08:02:38 51°8.28 2°33.448 -999 354 8.8 100100 79
2006-03-28 08:02:44 51°8.269 2°33.417 -999 355 8.8 100100 79
2006-03-28 08:02:48 51°8.262 2°33.397 -999 -999 8.8 100090 80
2006-03-28 08:02:54 51°8.25 2°33.366 -999 355 8.8 100090 80
2006-03-28 08:02:59 51°8.241 2°33.34 -999 1 8.8 100110 80
2006-03-28 08:03:04 51°8.232 2°33.315 -999 359 8.8 100110 80
2006-03-28 08:03:08 51°8.225 2°33.293 -999 -999 8.8 100070 79
2006-03-28 08:03:14 51°8.214 2°33.263 -999 355 8.8 100070 79
2006-03-28 08:03:19 51°8.205 2°33.237 -999 355 8.8 100090 79
2006-03-28 08:03:24 51°8.196 2°33.21 -999 356 8.8 100090 79
2006-03-28 08:03:28 51°8.189 2°33.189 -999 353 8.8 100110 79
2006-03-28 08:03:34 51°8.178 2°33.159 -999 354 8.8 100110 79
2006-03-28 08:03:39 51°8.169 2°33.133 -999 356 8.8 100120 79
2006-03-28 08:03:44 51°8.16 2°33.108 -999 3 8.8 100120 79
2006-03-28 08:03:49 51°8.151 2°33.082 -999 359 8.8 100110 79
2006-03-28 08:03:54 51°8.142 2°33.056 -999 2 8.8 100110 79
2006-03-28 08:03:58 51°8.135 2°33.036 -999 354 8.9 100120 79
2006-03-28 08:04:04 51°8.124 2°33.004 -999 355 8.9 100120 79
2006-03-28 08:04:09 51°8.116 2°32.978 -999 353 8.9 100100 79
2006-03-28 08:04:14 51°8.109 2°32.951 -999 352 8.9 100100 79
2006-03-28 08:04:18 51°8.104 2°32.929 -999 345 8.9 100120 79
2006-03-28 08:04:24 51°8.098 2°32.894 -999 341 8.9 100120 79
2006-03-28 08:04:28 51°8.095 2°32.871 -999 342 8.9 100120 79